aviador You're here:

OIII Decoded Metar

TEHERAN in IRAN
Report Time2017-10-17 20:00:00
UTC Time2017-10-17 20:32:44
Flight Rules vfr VFR
Wind260° at 06 kt
W.Decomp.*RWY 29: 5.0 kt HW 3.3 kt LCW
W.Rank260° ranks 11
Current wind is below 260° avg. (10.3)
Visibility9999 m
Phenomena:N/A
Clouds:N/A
Expected CloudBase > 9,200 ft AGL from Temp-Dew spread
CeilingNone
Temp13°C (ISA +6)
Dew Point-10°C (19% RH)
AAT7.8°C
QNH1018 hPa
Density Alt4,462 ft
Elevation3,907 ft
Report Wrong Elevation
Raw Report
METAR OIII 172000Z 26006KT CAVOK 13/M10 Q1018 A3007 NOSIG=

Extra information for OIII:More info

Metar Taf Metar & Taf Last 4 Metars F.Rules Stats Wind Profile Meteogram Temp Stats Airport Information Weather charts Add Link Nearby VenuesMetar ALERT Operation Metar Decoded Social comments